sensor_id;sensor_type;location;lat;lon;timestamp;P1;durP1;ratioP1;P2;durP2;ratioP2
80322;SDS011;69636;52.372;13.610;2023-04-24T00:02:23;9.88;;;8.55;;
80322;SDS011;69636;52.372;13.610;2023-04-24T00:04:50;9.88;;;7.03;;
80322;SDS011;69636;52.372;13.610;2023-04-24T00:07:16;10.20;;;8.02;;
80322;SDS011;69636;52.372;13.610;2023-04-24T00:09:42;9.50;;;8.02;;
80322;SDS011;69636;52.372;13.610;2023-04-24T00:12:08;8.43;;;7.38;;
80322;SDS011;69636;52.372;13.610;2023-04-24T00:14:34;9.57;;;7.72;;
80322;SDS011;69636;52.372;13.610;2023-04-24T00:17:01;8.35;;;7.10;;
80322;SDS011;69636;52.372;13.610;2023-04-24T00:19:28;9.40;;;7.32;;
80322;SDS011;69636;52.372;13.610;2023-04-24T00:21:54;8.95;;;7.32;;
80322;SDS011;69636;52.372;13.610;2023-04-24T00:24:20;8.75;;;7.43;;
80322;SDS011;69636;52.372;13.610;2023-04-24T00:26:47;9.82;;;7.25;;
80322;SDS011;69636;52.372;13.610;2023-04-24T00:29:13;9.35;;;7.53;;
80322;SDS011;69636;52.372;13.610;2023-04-24T00:31:39;9.68;;;8.00;;
80322;SDS011;69636;52.372;13.610;2023-04-24T00:34:05;8.18;;;7.18;;
80322;SDS011;69636;52.372;13.610;2023-04-24T00:36:33;10.35;;;8.40;;
80322;SDS011;69636;52.372;13.610;2023-04-24T00:38:59;9.30;;;8.05;;
80322;SDS011;69636;52.372;13.610;2023-04-24T00:41:25;9.88;;;8.07;;
80322;SDS011;69636;52.372;13.610;2023-04-24T00:43:51;8.63;;;7.50;;
80322;SDS011;69636;52.372;13.610;2023-04-24T00:46:17;8.65;;;6.85;;
80322;SDS011;69636;52.372;13.610;2023-04-24T00:48:44;8.95;;;6.95;;
80322;SDS011;69636;52.372;13.610;2023-04-24T00:51:10;9.10;;;7.68;;
80322;SDS011;69636;52.372;13.610;2023-04-24T00:53:38;8.88;;;6.53;;
80322;SDS011;69636;52.372;13.610;2023-04-24T00:56:04;10.45;;;7.93;;
80322;SDS011;69636;52.372;13.610;2023-04-24T00:58:31;8.93;;;8.02;;
80322;SDS011;69636;52.372;13.610;2023-04-24T01:00:57;10.15;;;7.88;;
80322;SDS011;69636;52.372;13.610;2023-04-24T01:03:25;9.48;;;7.70;;
80322;SDS011;69636;52.372;13.610;2023-04-24T01:05:54;9.23;;;7.75;;
80322;SDS011;69636;52.372;13.610;2023-04-24T01:08:21;9.48;;;8.05;;
80322;SDS011;69636;52.372;13.610;2023-04-24T01:10:50;8.95;;;7.45;;
80322;SDS011;69636;52.372;13.610;2023-04-24T01:13:18;8.57;;;7.55;;
80322;SDS011;69636;52.372;13.610;2023-04-24T01:15:44;7.53;;;6.72;;
80322;SDS011;69636;52.372;13.610;2023-04-24T01:18:10;9.70;;;7.60;;
80322;SDS011;69636;52.372;13.610;2023-04-24T01:20:36;8.80;;;7.82;;
80322;SDS011;69636;52.372;13.610;2023-04-24T01:23:06;9.15;;;7.68;;
80322;SDS011;69636;52.372;13.610;2023-04-24T01:25:32;9.57;;;8.43;;
80322;SDS011;69636;52.372;13.610;2023-04-24T01:27:59;9.93;;;7.50;;
80322;SDS011;69636;52.372;13.610;2023-04-24T01:30:25;8.30;;;7.38;;
80322;SDS011;69636;52.372;13.610;2023-04-24T01:32:52;7.93;;;6.85;;
80322;SDS011;69636;52.372;13.610;2023-04-24T01:35:19;9.13;;;7.82;;
80322;SDS011;69636;52.372;13.610;2023-04-24T01:37:45;8.88;;;7.40;;
80322;SDS011;69636;52.372;13.610;2023-04-24T01:40:13;9.00;;;8.10;;
80322;SDS011;69636;52.372;13.610;2023-04-24T01:42:41;9.73;;;8.35;;
80322;SDS011;69636;52.372;13.610;2023-04-24T01:45:08;9.73;;;7.70;;
80322;SDS011;69636;52.372;13.610;2023-04-24T01:47:37;9.18;;;7.97;;
80322;SDS011;69636;52.372;13.610;2023-04-24T01:50:04;9.00;;;7.13;;
80322;SDS011;69636;52.372;13.610;2023-04-24T01:52:31;9.70;;;8.07;;
80322;SDS011;69636;52.372;13.610;2023-04-24T01:54:59;9.18;;;7.82;;
80322;SDS011;69636;52.372;13.610;2023-04-24T01:57:26;8.70;;;7.32;;
80322;SDS011;69636;52.372;13.610;2023-04-24T01:59:53;9.73;;;7.60;;
80322;SDS011;69636;52.372;13.610;2023-04-24T02:02:19;10.35;;;9.20;;
80322;SDS011;69636;52.372;13.610;2023-04-24T02:04:45;10.13;;;8.10;;
80322;SDS011;69636;52.372;13.610;2023-04-24T02:07:11;10.38;;;9.38;;
80322;SDS011;69636;52.372;13.610;2023-04-24T02:09:37;9.38;;;8.38;;
80322;SDS011;69636;52.372;13.610;2023-04-24T02:12:03;7.95;;;6.50;;
80322;SDS011;69636;52.372;13.610;2023-04-24T02:14:31;9.18;;;7.40;;
80322;SDS011;69636;52.372;13.610;2023-04-24T02:16:57;10.05;;;8.05;;
80322;SDS011;69636;52.372;13.610;2023-04-24T02:19:23;10.02;;;7.80;;
80322;SDS011;69636;52.372;13.610;2023-04-24T02:21:49;8.82;;;7.85;;
80322;SDS011;69636;52.372;13.610;2023-04-24T02:24:15;9.95;;;7.82;;
80322;SDS011;69636;52.372;13.610;2023-04-24T02:26:41;9.80;;;8.45;;
80322;SDS011;69636;52.372;13.610;2023-04-24T02:29:07;9.23;;;8.32;;
80322;SDS011;69636;52.372;13.610;2023-04-24T02:31:35;9.10;;;7.00;;
80322;SDS011;69636;52.372;13.610;2023-04-24T02:34:01;8.88;;;7.90;;
80322;SDS011;69636;52.372;13.610;2023-04-24T02:36:27;9.00;;;7.80;;
80322;SDS011;69636;52.372;13.610;2023-04-24T02:38:53;9.20;;;7.95;;
80322;SDS011;69636;52.372;13.610;2023-04-24T02:41:19;8.93;;;8.00;;
80322;SDS011;69636;52.372;13.610;2023-04-24T02:43:45;10.20;;;8.57;;
80322;SDS011;69636;52.372;13.610;2023-04-24T02:46:11;10.23;;;8.05;;
80322;SDS011;69636;52.372;13.610;2023-04-24T02:48:39;8.77;;;7.60;;
80322;SDS011;69636;52.372;13.610;2023-04-24T02:51:05;9.82;;;8.00;;
80322;SDS011;69636;52.372;13.610;2023-04-24T02:53:31;9.82;;;8.40;;
80322;SDS011;69636;52.372;13.610;2023-04-24T02:55:57;10.38;;;7.63;;
80322;SDS011;69636;52.372;13.610;2023-04-24T02:58:23;9.90;;;8.43;;
80322;SDS011;69636;52.372;13.610;2023-04-24T03:00:52;9.70;;;8.45;;
80322;SDS011;69636;52.372;13.610;2023-04-24T03:03:19;9.93;;;8.32;;
80322;SDS011;69636;52.372;13.610;2023-04-24T03:05:46;9.82;;;8.10;;
80322;SDS011;69636;52.372;13.610;2023-04-24T03:08:13;10.48;;;8.85;;
80322;SDS011;69636;52.372;13.610;2023-04-24T03:10:39;11.30;;;7.72;;
80322;SDS011;69636;52.372;13.610;2023-04-24T03:13:05;10.23;;;7.90;;
80322;SDS011;69636;52.372;13.610;2023-04-24T03:15:31;9.18;;;7.82;;
80322;SDS011;69636;52.372;13.610;2023-04-24T03:17:57;9.02;;;7.53;;
80322;SDS011;69636;52.372;13.610;2023-04-24T03:20:23;10.13;;;7.95;;
80322;SDS011;69636;52.372;13.610;2023-04-24T03:22:51;11.30;;;7.80;;
80322;SDS011;69636;52.372;13.610;2023-04-24T03:25:17;10.32;;;7.75;;
80322;SDS011;69636;52.372;13.610;2023-04-24T03:27:43;9.55;;;7.30;;
80322;SDS011;69636;52.372;13.610;2023-04-24T03:30:09;9.88;;;8.15;;
80322;SDS011;69636;52.372;13.610;2023-04-24T03:32:36;10.57;;;8.43;;
80322;SDS011;69636;52.372;13.610;2023-04-24T03:35:02;9.23;;;8.05;;
80322;SDS011;69636;52.372;13.610;2023-04-24T03:37:28;10.02;;;8.00;;
80322;SDS011;69636;52.372;13.610;2023-04-24T03:39:55;9.63;;;7.80;;
80322;SDS011;69636;52.372;13.610;2023-04-24T03:42:22;9.20;;;7.60;;
80322;SDS011;69636;52.372;13.610;2023-04-24T03:44:48;8.98;;;8.05;;
80322;SDS011;69636;52.372;13.610;2023-04-24T03:47:14;9.90;;;7.80;;
80322;SDS011;69636;52.372;13.610;2023-04-24T03:49:40;9.93;;;7.82;;
80322;SDS011;69636;52.372;13.610;2023-04-24T03:52:06;10.73;;;8.20;;
80322;SDS011;69636;52.372;13.610;2023-04-24T03:54:32;9.10;;;7.00;;
80322;SDS011;69636;52.372;13.610;2023-04-24T03:56:59;11.43;;;8.57;;
80322;SDS011;69636;52.372;13.610;2023-04-24T03:59:26;9.07;;;8.13;;
80322;SDS011;69636;52.372;13.610;2023-04-24T04:01:52;9.13;;;7.43;;
80322;SDS011;69636;52.372;13.610;2023-04-24T04:04:18;8.85;;;7.95;;
80322;SDS011;69636;52.372;13.610;2023-04-24T04:06:44;9.65;;;8.07;;
80322;SDS011;69636;52.372;13.610;2023-04-24T04:09:10;12.23;;;8.65;;
80322;SDS011;69636;52.372;13.610;2023-04-24T04:11:36;10.25;;;8.80;;
80322;SDS011;69636;52.372;13.610;2023-04-24T04:14:04;9.48;;;7.55;;
80322;SDS011;69636;52.372;13.610;2023-04-24T04:16:30;9.52;;;7.60;;
80322;SDS011;69636;52.372;13.610;2023-04-24T04:18:56;9.50;;;8.50;;
80322;SDS011;69636;52.372;13.610;2023-04-24T04:21:22;10.55;;;8.70;;
80322;SDS011;69636;52.372;13.610;2023-04-24T04:23:48;9.20;;;8.10;;
80322;SDS011;69636;52.372;13.610;2023-04-24T04:26:14;11.05;;;8.73;;
80322;SDS011;69636;52.372;13.610;2023-04-24T04:28:40;10.50;;;8.07;;
80322;SDS011;69636;52.372;13.610;2023-04-24T04:31:08;9.18;;;8.27;;
80322;SDS011;69636;52.372;13.610;2023-04-24T04:33:34;11.27;;;7.55;;
80322;SDS011;69636;52.372;13.610;2023-04-24T04:36:00;9.52;;;8.13;;
80322;SDS011;69636;52.372;13.610;2023-04-24T04:38:26;10.15;;;8.25;;
80322;SDS011;69636;52.372;13.610;2023-04-24T04:40:52;8.85;;;7.53;;
80322;SDS011;69636;52.372;13.610;2023-04-24T04:43:18;8.18;;;7.05;;
80322;SDS011;69636;52.372;13.610;2023-04-24T04:45:44;8.38;;;7.47;;
80322;SDS011;69636;52.372;13.610;2023-04-24T04:48:12;9.73;;;7.13;;
80322;SDS011;69636;52.372;13.610;2023-04-24T04:50:38;8.52;;;7.15;;
80322;SDS011;69636;52.372;13.610;2023-04-24T04:53:04;8.88;;;6.85;;
80322;SDS011;69636;52.372;13.610;2023-04-24T04:55:30;8.18;;;7.30;;
80322;SDS011;69636;52.372;13.610;2023-04-24T04:57:56;7.95;;;7.07;;
80322;SDS011;69636;52.372;13.610;2023-04-24T05:00:22;8.43;;;6.50;;
80322;SDS011;69636;52.372;13.610;2023-04-24T05:02:48;7.75;;;6.70;;
80322;SDS011;69636;52.372;13.610;2023-04-24T05:05:16;7.35;;;5.88;;
80322;SDS011;69636;52.372;13.610;2023-04-24T05:07:43;6.45;;;5.40;;
80322;SDS011;69636;52.372;13.610;2023-04-24T05:10:09;7.75;;;6.13;;
80322;SDS011;69636;52.372;13.610;2023-04-24T05:12:35;7.65;;;5.75;;
80322;SDS011;69636;52.372;13.610;2023-04-24T05:15:01;5.82;;;5.05;;
80322;SDS011;69636;52.372;13.610;2023-04-24T05:17:28;6.50;;;5.00;;
80322;SDS011;69636;52.372;13.610;2023-04-24T05:19:54;7.50;;;5.25;;
80322;SDS011;69636;52.372;13.610;2023-04-24T05:22:21;7.75;;;4.88;;
80322;SDS011;69636;52.372;13.610;2023-04-24T05:24:47;6.07;;;4.13;;
80322;SDS011;69636;52.372;13.610;2023-04-24T05:27:14;5.22;;;4.63;;
80322;SDS011;69636;52.372;13.610;2023-04-24T05:29:40;5.35;;;4.47;;
80322;SDS011;69636;52.372;13.610;2023-04-24T05:32:06;6.03;;;4.43;;
80322;SDS011;69636;52.372;13.610;2023-04-24T05:34:32;5.18;;;3.50;;
80322;SDS011;69636;52.372;13.610;2023-04-24T05:36:58;4.75;;;3.80;;
80322;SDS011;69636;52.372;13.610;2023-04-24T05:39:25;5.10;;;3.70;;
80322;SDS011;69636;52.372;13.610;2023-04-24T05:41:52;4.85;;;3.78;;
80322;SDS011;69636;52.372;13.610;2023-04-24T05:44:18;5.57;;;3.58;;
80322;SDS011;69636;52.372;13.610;2023-04-24T05:46:44;4.07;;;3.13;;
80322;SDS011;69636;52.372;13.610;2023-04-24T05:49:10;4.78;;;3.50;;
80322;SDS011;69636;52.372;13.610;2023-04-24T05:51:36;4.05;;;3.13;;
80322;SDS011;69636;52.372;13.610;2023-04-24T05:54:02;4.60;;;3.25;;
80322;SDS011;69636;52.372;13.610;2023-04-24T05:56:30;5.38;;;4.28;;
80322;SDS011;69636;52.372;13.610;2023-04-24T05:58:56;3.78;;;3.03;;
80322;SDS011;69636;52.372;13.610;2023-04-24T06:01:22;4.57;;;2.72;;
80322;SDS011;69636;52.372;13.610;2023-04-24T06:03:48;4.10;;;3.17;;
80322;SDS011;69636;52.372;13.610;2023-04-24T06:06:14;5.05;;;2.85;;
80322;SDS011;69636;52.372;13.610;2023-04-24T06:08:40;6.18;;;2.53;;
80322;SDS011;69636;52.372;13.610;2023-04-24T06:11:06;4.20;;;2.85;;
80322;SDS011;69636;52.372;13.610;2023-04-24T06:13:34;4.10;;;2.72;;
80322;SDS011;69636;52.372;13.610;2023-04-24T06:16:00;3.80;;;3.13;;
80322;SDS011;69636;52.372;13.610;2023-04-24T06:18:26;3.90;;;2.35;;
80322;SDS011;69636;52.372;13.610;2023-04-24T06:20:52;3.63;;;2.30;;
80322;SDS011;69636;52.372;13.610;2023-04-24T06:23:18;5.47;;;2.75;;
80322;SDS011;69636;52.372;13.610;2023-04-24T06:25:44;4.18;;;2.60;;
80322;SDS011;69636;52.372;13.610;2023-04-24T06:28:10;4.20;;;2.55;;
80322;SDS011;69636;52.372;13.610;2023-04-24T06:30:38;4.10;;;2.10;;
80322;SDS011;69636;52.372;13.610;2023-04-24T06:33:04;3.47;;;2.13;;
80322;SDS011;69636;52.372;13.610;2023-04-24T06:35:30;2.80;;;1.88;;
80322;SDS011;69636;52.372;13.610;2023-04-24T06:37:56;4.05;;;2.00;;
80322;SDS011;69636;52.372;13.610;2023-04-24T06:40:22;2.95;;;1.83;;
80322;SDS011;69636;52.372;13.610;2023-04-24T06:42:48;2.90;;;1.85;;
80322;SDS011;69636;52.372;13.610;2023-04-24T06:45:15;4.00;;;1.90;;
80322;SDS011;69636;52.372;13.610;2023-04-24T06:47:42;3.85;;;1.70;;
80322;SDS011;69636;52.372;13.610;2023-04-24T06:50:08;3.05;;;1.40;;
80322;SDS011;69636;52.372;13.610;2023-04-24T06:52:35;2.33;;;1.20;;
80322;SDS011;69636;52.372;13.610;2023-04-24T06:55:01;2.50;;;1.10;;
80322;SDS011;69636;52.372;13.610;2023-04-24T06:57:27;2.60;;;1.10;;
80322;SDS011;69636;52.372;13.610;2023-04-24T06:59:53;1.90;;;0.90;;
80322;SDS011;69636;52.372;13.610;2023-04-24T07:02:20;2.17;;;0.80;;
80322;SDS011;69636;52.372;13.610;2023-04-24T07:04:47;2.58;;;1.10;;
80322;SDS011;69636;52.372;13.610;2023-04-24T07:07:13;2.40;;;1.30;;
80322;SDS011;69636;52.372;13.610;2023-04-24T07:09:39;2.25;;;1.10;;
80322;SDS011;69636;52.372;13.610;2023-04-24T07:12:06;1.67;;;0.88;;
80322;SDS011;69636;52.372;13.610;2023-04-24T07:14:32;3.58;;;1.60;;
80322;SDS011;69636;52.372;13.610;2023-04-24T07:16:58;2.72;;;1.13;;
80322;SDS011;69636;52.372;13.610;2023-04-24T07:19:24;2.88;;;1.00;;
80322;SDS011;69636;52.372;13.610;2023-04-24T07:21:52;2.13;;;0.90;;
80322;SDS011;69636;52.372;13.610;2023-04-24T07:26:43;2.80;;;1.00;;
80322;SDS011;69636;52.372;13.610;2023-04-24T07:29:09;3.13;;;1.10;;
80322;SDS011;69636;52.372;13.610;2023-04-24T07:31:36;2.22;;;0.77;;
80322;SDS011;69636;52.372;13.610;2023-04-24T07:34:02;1.77;;;0.60;;
80322;SDS011;69636;52.372;13.610;2023-04-24T07:36:28;2.30;;;1.00;;
80322;SDS011;69636;52.372;13.610;2023-04-24T07:38:55;2.25;;;0.90;;
80322;SDS011;69636;52.372;13.610;2023-04-24T07:41:21;3.58;;;1.13;;
80322;SDS011;69636;52.372;13.610;2023-04-24T07:43:48;2.92;;;1.10;;
80322;SDS011;69636;52.372;13.610;2023-04-24T07:46:14;2.70;;;1.02;;
80322;SDS011;69636;52.372;13.610;2023-04-24T07:48:40;2.05;;;0.90;;
80322;SDS011;69636;52.372;13.610;2023-04-24T07:51:06;2.10;;;0.90;;
80322;SDS011;69636;52.372;13.610;2023-04-24T07:53:32;3.25;;;0.90;;
80322;SDS011;69636;52.372;13.610;2023-04-24T07:55:59;2.10;;;0.93;;
80322;SDS011;69636;52.372;13.610;2023-04-24T07:58:25;2.17;;;0.80;;
80322;SDS011;69636;52.372;13.610;2023-04-24T08:00:52;2.90;;;1.10;;
80322;SDS011;69636;52.372;13.610;2023-04-24T08:03:18;2.05;;;0.60;;
80322;SDS011;69636;52.372;13.610;2023-04-24T08:05:44;14.40;;;11.02;;
80322;SDS011;69636;52.372;13.610;2023-04-24T08:08:10;4.50;;;2.20;;
80322;SDS011;69636;52.372;13.610;2023-04-24T08:10:36;4.90;;;2.28;;
80322;SDS011;69636;52.372;13.610;2023-04-24T08:13:04;5.45;;;3.63;;
80322;SDS011;69636;52.372;13.610;2023-04-24T08:15:30;5.20;;;3.22;;
80322;SDS011;69636;52.372;13.610;2023-04-24T08:17:56;15.18;;;8.88;;
80322;SDS011;69636;52.372;13.610;2023-04-24T08:20:22;2.65;;;1.10;;
80322;SDS011;69636;52.372;13.610;2023-04-24T08:22:49;4.00;;;1.70;;
80322;SDS011;69636;52.372;13.610;2023-04-24T08:25:15;7.25;;;5.70;;
80322;SDS011;69636;52.372;13.610;2023-04-24T08:27:41;3.88;;;1.80;;
80322;SDS011;69636;52.372;13.610;2023-04-24T08:30:09;3.65;;;1.13;;
80322;SDS011;69636;52.372;13.610;2023-04-24T08:32:35;5.35;;;4.20;;
80322;SDS011;69636;52.372;13.610;2023-04-24T08:35:02;2.15;;;0.60;;
80322;SDS011;69636;52.372;13.610;2023-04-24T08:37:28;1.25;;;0.50;;
80322;SDS011;69636;52.372;13.610;2023-04-24T08:39:54;4.00;;;1.42;;
80322;SDS011;69636;52.372;13.610;2023-04-24T08:42:21;1.58;;;0.50;;
80322;SDS011;69636;52.372;13.610;2023-04-24T08:44:48;2.05;;;0.60;;
80322;SDS011;69636;52.372;13.610;2023-04-24T08:49:43;1.55;;;0.65;;
80322;SDS011;69636;52.372;13.610;2023-04-24T08:52:10;5.70;;;2.08;;
80322;SDS011;69636;52.372;13.610;2023-04-24T08:54:36;2.75;;;1.10;;
80322;SDS011;69636;52.372;13.610;2023-04-24T08:57:02;2.45;;;0.90;;
80322;SDS011;69636;52.372;13.610;2023-04-24T08:59:29;3.42;;;1.00;;
80322;SDS011;69636;52.372;13.610;2023-04-24T09:01:57;4.38;;;2.08;;
80322;SDS011;69636;52.372;13.610;2023-04-24T09:04:24;3.28;;;1.02;;
80322;SDS011;69636;52.372;13.610;2023-04-24T09:09:17;4.28;;;2.22;;
80322;SDS011;69636;52.372;13.610;2023-04-24T09:11:43;2.90;;;1.00;;
80322;SDS011;69636;52.372;13.610;2023-04-24T09:14:10;1.95;;;1.00;;
80322;SDS011;69636;52.372;13.610;2023-04-24T09:16:36;1.85;;;1.02;;
80322;SDS011;69636;52.372;13.610;2023-04-24T09:19:02;4.10;;;1.60;;
80322;SDS011;69636;52.372;13.610;2023-04-24T09:21:32;6.20;;;4.05;;
80322;SDS011;69636;52.372;13.610;2023-04-24T09:23:59;2.70;;;0.98;;
80322;SDS011;69636;52.372;13.610;2023-04-24T09:26:28;2.70;;;1.23;;
80322;SDS011;69636;52.372;13.610;2023-04-24T09:28:55;2.75;;;1.02;;
80322;SDS011;69636;52.372;13.610;2023-04-24T09:31:21;2.65;;;1.00;;
80322;SDS011;69636;52.372;13.610;2023-04-24T09:33:53;3.92;;;1.80;;
80322;SDS011;69636;52.372;13.610;2023-04-24T09:36:20;9.27;;;5.60;;
80322;SDS011;69636;52.372;13.610;2023-04-24T09:38:55;5.18;;;2.53;;
80322;SDS011;69636;52.372;13.610;2023-04-24T09:41:24;2.95;;;1.73;;
80322;SDS011;69636;52.372;13.610;2023-04-24T09:43:51;3.47;;;1.00;;
80322;SDS011;69636;52.372;13.610;2023-04-24T09:46:19;2.28;;;1.85;;
80322;SDS011;69636;52.372;13.610;2023-04-24T09:48:45;2.53;;;1.50;;
80322;SDS011;69636;52.372;13.610;2023-04-24T09:51:11;3.00;;;1.30;;
80322;SDS011;69636;52.372;13.610;2023-04-24T09:53:38;5.07;;;2.83;;
80322;SDS011;69636;52.372;13.610;2023-04-24T09:56:08;3.65;;;1.90;;
80322;SDS011;69636;52.372;13.610;2023-04-24T09:58:35;2.97;;;1.60;;
80322;SDS011;69636;52.372;13.610;2023-04-24T10:01:01;3.17;;;2.55;;
80322;SDS011;69636;52.372;13.610;2023-04-24T10:03:29;2.72;;;1.15;;
80322;SDS011;69636;52.372;13.610;2023-04-24T10:05:58;2.88;;;1.50;;
80322;SDS011;69636;52.372;13.610;2023-04-24T10:08:24;2.90;;;1.17;;
80322;SDS011;69636;52.372;13.610;2023-04-24T10:10:51;2.63;;;1.17;;
80322;SDS011;69636;52.372;13.610;2023-04-24T10:13:19;3.45;;;0.90;;
80322;SDS011;69636;52.372;13.610;2023-04-24T10:15:45;2.97;;;1.17;;
80322;SDS011;69636;52.372;13.610;2023-04-24T10:18:13;2.90;;;1.50;;
80322;SDS011;69636;52.372;13.610;2023-04-24T10:20:39;2.33;;;1.60;;
80322;SDS011;69636;52.372;13.610;2023-04-24T10:23:06;2.67;;;1.15;;
80322;SDS011;69636;52.372;13.610;2023-04-24T10:25:33;2.17;;;1.20;;
80322;SDS011;69636;52.372;13.610;2023-04-24T10:28:00;2.38;;;1.20;;
80322;SDS011;69636;52.372;13.610;2023-04-24T10:30:30;2.22;;;1.10;;
80322;SDS011;69636;52.372;13.610;2023-04-24T10:32:57;2.10;;;1.20;;
80322;SDS011;69636;52.372;13.610;2023-04-24T10:35:23;2.30;;;1.40;;
80322;SDS011;69636;52.372;13.610;2023-04-24T10:37:50;3.28;;;1.42;;
80322;SDS011;69636;52.372;13.610;2023-04-24T10:40:26;2.67;;;1.20;;
80322;SDS011;69636;52.372;13.610;2023-04-24T10:42:55;2.13;;;1.15;;
80322;SDS011;69636;52.372;13.610;2023-04-24T10:45:22;3.53;;;1.20;;
80322;SDS011;69636;52.372;13.610;2023-04-24T10:47:53;3.15;;;1.45;;
80322;SDS011;69636;52.372;13.610;2023-04-24T10:50:22;2.80;;;1.58;;
80322;SDS011;69636;52.372;13.610;2023-04-24T10:52:49;1.70;;;1.10;;
80322;SDS011;69636;52.372;13.610;2023-04-24T10:55:15;2.72;;;1.63;;
80322;SDS011;69636;52.372;13.610;2023-04-24T11:00:28;3.70;;;1.40;;
80322;SDS011;69636;52.372;13.610;2023-04-24T11:02:56;3.13;;;1.13;;
80322;SDS011;69636;52.372;13.610;2023-04-24T11:05:22;2.35;;;1.30;;
80322;SDS011;69636;52.372;13.610;2023-04-24T11:08:21;4.22;;;1.15;;
80322;SDS011;69636;52.372;13.610;2023-04-24T11:10:54;2.40;;;1.13;;
80322;SDS011;69636;52.372;13.610;2023-04-24T11:13:21;2.70;;;1.10;;
80322;SDS011;69636;52.372;13.610;2023-04-24T11:18:40;3.42;;;1.25;;
80322;SDS011;69636;52.372;13.610;2023-04-24T11:21:10;2.92;;;1.05;;
80322;SDS011;69636;52.372;13.610;2023-04-24T11:23:36;2.97;;;0.90;;
80322;SDS011;69636;52.372;13.610;2023-04-24T11:26:11;2.17;;;0.65;;
80322;SDS011;69636;52.372;13.610;2023-04-24T11:28:43;1.48;;;0.70;;
80322;SDS011;69636;52.372;13.610;2023-04-24T11:34:07;1.77;;;0.90;;
80322;SDS011;69636;52.372;13.610;2023-04-24T11:36:33;2.20;;;0.90;;
80322;SDS011;69636;52.372;13.610;2023-04-24T11:39:00;2.00;;;0.80;;
80322;SDS011;69636;52.372;13.610;2023-04-24T11:41:27;1.98;;;1.00;;
80322;SDS011;69636;52.372;13.610;2023-04-24T11:43:54;2.20;;;1.25;;
80322;SDS011;69636;52.372;13.610;2023-04-24T11:46:21;3.25;;;1.63;;
80322;SDS011;69636;52.372;13.610;2023-04-24T11:48:48;4.18;;;2.22;;
80322;SDS011;69636;52.372;13.610;2023-04-24T11:51:15;3.47;;;1.90;;
80322;SDS011;69636;52.372;13.610;2023-04-24T11:53:41;2.95;;;1.95;;
80322;SDS011;69636;52.372;13.610;2023-04-24T11:56:08;2.55;;;1.40;;
80322;SDS011;69636;52.372;13.610;2023-04-24T11:58:34;2.40;;;1.45;;
80322;SDS011;69636;52.372;13.610;2023-04-24T12:01:01;3.20;;;1.15;;
80322;SDS011;69636;52.372;13.610;2023-04-24T12:03:27;3.25;;;1.65;;
80322;SDS011;69636;52.372;13.610;2023-04-24T12:06:03;1.40;;;0.85;;
80322;SDS011;69636;52.372;13.610;2023-04-24T12:08:32;2.33;;;1.00;;
80322;SDS011;69636;52.372;13.610;2023-04-24T12:10:58;2.30;;;1.13;;
80322;SDS011;69636;52.372;13.610;2023-04-24T12:13:25;1.73;;;0.90;;
80322;SDS011;69636;52.372;13.610;2023-04-24T12:15:51;1.77;;;0.95;;
80322;SDS011;69636;52.372;13.610;2023-04-24T12:18:17;2.47;;;0.90;;
80322;SDS011;69636;52.372;13.610;2023-04-24T12:20:44;2.30;;;0.85;;
80322;SDS011;69636;52.372;13.610;2023-04-24T12:23:10;2.15;;;1.13;;
80322;SDS011;69636;52.372;13.610;2023-04-24T12:25:38;2.40;;;0.75;;
80322;SDS011;69636;52.372;13.610;2023-04-24T12:28:10;2.05;;;1.00;;
80322;SDS011;69636;52.372;13.610;2023-04-24T12:30:39;3.03;;;1.30;;
80322;SDS011;69636;52.372;13.610;2023-04-24T12:33:06;1.70;;;0.90;;
80322;SDS011;69636;52.372;13.610;2023-04-24T12:35:32;1.45;;;0.75;;
80322;SDS011;69636;52.372;13.610;2023-04-24T12:38:04;2.58;;;1.30;;
80322;SDS011;69636;52.372;13.610;2023-04-24T12:40:31;1.35;;;0.60;;
80322;SDS011;69636;52.372;13.610;2023-04-24T12:42:59;1.65;;;0.63;;
80322;SDS011;69636;52.372;13.610;2023-04-24T12:47:50;37.13;;;33.15;;
80322;SDS011;69636;52.372;13.610;2023-04-24T12:50:16;10.52;;;9.23;;
80322;SDS011;69636;52.372;13.610;2023-04-24T12:52:43;3.50;;;1.40;;
80322;SDS011;69636;52.372;13.610;2023-04-24T12:55:09;3.10;;;1.65;;
80322;SDS011;69636;52.372;13.610;2023-04-24T12:57:36;2.80;;;1.92;;
80322;SDS011;69636;52.372;13.610;2023-04-24T13:00:05;18.88;;;15.13;;
80322;SDS011;69636;52.372;13.610;2023-04-24T13:02:33;5.28;;;3.40;;
80322;SDS011;69636;52.372;13.610;2023-04-24T13:04:59;3.00;;;1.90;;
80322;SDS011;69636;52.372;13.610;2023-04-24T13:07:26;9.90;;;6.93;;
80322;SDS011;69636;52.372;13.610;2023-04-24T13:09:53;3.78;;;1.98;;
80322;SDS011;69636;52.372;13.610;2023-04-24T13:12:20;7.05;;;3.47;;
80322;SDS011;69636;52.372;13.610;2023-04-24T13:14:47;2.55;;;1.25;;
80322;SDS011;69636;52.372;13.610;2023-04-24T13:17:14;3.45;;;2.17;;
80322;SDS011;69636;52.372;13.610;2023-04-24T13:19:41;2.22;;;1.10;;
80322;SDS011;69636;52.372;13.610;2023-04-24T13:22:08;2.33;;;0.55;;
80322;SDS011;69636;52.372;13.610;2023-04-24T13:24:35;2.22;;;0.93;;
80322;SDS011;69636;52.372;13.610;2023-04-24T13:27:02;5.50;;;1.42;;
80322;SDS011;69636;52.372;13.610;2023-04-24T13:29:28;3.25;;;1.33;;
80322;SDS011;69636;52.372;13.610;2023-04-24T13:31:54;2.40;;;0.85;;
80322;SDS011;69636;52.372;13.610;2023-04-24T13:34:22;3.55;;;1.30;;
80322;SDS011;69636;52.372;13.610;2023-04-24T13:36:49;2.78;;;0.80;;
80322;SDS011;69636;52.372;13.610;2023-04-24T13:39:15;2.08;;;0.60;;
80322;SDS011;69636;52.372;13.610;2023-04-24T13:41:41;2.03;;;0.63;;
80322;SDS011;69636;52.372;13.610;2023-04-24T13:44:07;1.58;;;0.85;;
80322;SDS011;69636;52.372;13.610;2023-04-24T13:46:33;2.28;;;1.23;;
80322;SDS011;69636;52.372;13.610;2023-04-24T13:48:59;3.03;;;1.02;;
80322;SDS011;69636;52.372;13.610;2023-04-24T13:51:28;2.03;;;0.73;;
80322;SDS011;69636;52.372;13.610;2023-04-24T13:53:54;2.28;;;0.90;;
80322;SDS011;69636;52.372;13.610;2023-04-24T13:56:20;2.17;;;0.70;;
80322;SDS011;69636;52.372;13.610;2023-04-24T13:58:47;9.63;;;1.10;;
80322;SDS011;69636;52.372;13.610;2023-04-24T14:01:13;2.42;;;1.05;;
80322;SDS011;69636;52.372;13.610;2023-04-24T14:03:40;2.95;;;0.95;;
80322;SDS011;69636;52.372;13.610;2023-04-24T14:06:07;3.53;;;1.00;;
80322;SDS011;69636;52.372;13.610;2023-04-24T14:08:34;2.42;;;0.65;;
80322;SDS011;69636;52.372;13.610;2023-04-24T14:11:00;1.90;;;0.85;;
80322;SDS011;69636;52.372;13.610;2023-04-24T14:13:26;2.75;;;1.00;;
80322;SDS011;69636;52.372;13.610;2023-04-24T14:15:53;1.75;;;0.80;;
80322;SDS011;69636;52.372;13.610;2023-04-24T14:18:19;1.83;;;0.90;;
80322;SDS011;69636;52.372;13.610;2023-04-24T14:20:45;2.85;;;1.10;;
80322;SDS011;69636;52.372;13.610;2023-04-24T14:23:11;3.47;;;1.20;;
80322;SDS011;69636;52.372;13.610;2023-04-24T14:25:39;2.97;;;1.02;;
80322;SDS011;69636;52.372;13.610;2023-04-24T14:28:05;3.15;;;1.42;;
80322;SDS011;69636;52.372;13.610;2023-04-24T14:30:31;1.67;;;1.00;;
80322;SDS011;69636;52.372;13.610;2023-04-24T14:32:57;2.28;;;1.10;;
80322;SDS011;69636;52.372;13.610;2023-04-24T14:35:23;1.95;;;0.68;;
80322;SDS011;69636;52.372;13.610;2023-04-24T14:37:50;3.20;;;1.00;;
80322;SDS011;69636;52.372;13.610;2023-04-24T14:40:16;2.90;;;0.90;;
80322;SDS011;69636;52.372;13.610;2023-04-24T14:42:43;3.00;;;1.17;;
80322;SDS011;69636;52.372;13.610;2023-04-24T14:45:09;3.25;;;1.67;;
80322;SDS011;69636;52.372;13.610;2023-04-24T14:47:36;2.10;;;1.00;;
80322;SDS011;69636;52.372;13.610;2023-04-24T14:50:02;3.10;;;0.90;;